Main page
METAR-TAF:

METAR-TAF

Airports :

Szolnok Air Base

Szolnok, Hungary

latitude: 47-07N, longitude: 020-14E, elevation: 89 m

Current weather observation

The report was made 41 minutes ago, at 16:15 UTC
Wind 14 kt from the Northeast
Temperature 19°C
Humidity 32%
Pressure 1023 hPa
Visibility 10 km or more
no clouds below 1500 m and no cumulonimbus

METAR: LHSN 181615Z 04014KT CAVOK 19/02 Q1023 NOSIG RMK BLU

Time: 18:56 (16:56 UTC)

Forecast

The report was made 2 hours and 41 minutes ago, at 14:15 UTC
Forecast valid from 18 at 15 UTC to 18 at 24 UTC
Wind 14 kt from the Northeast with gusts up to 24 kt
Visibility 10 km or more
no clouds below 1500 m and no cumulonimbus
Becoming
from 18 at 15 UTC to 18 at 18 UTC
Wind 10 kt from the Northeast

TAF: LHSN 181415Z 1815/1824 04014G24KT CAVOK BECMG 1815/1818 05010KT

Weather observations and forecasts of more than 4000 airports (METAR and TAF reports).

The available stations are represented by yellow and red dots on the map.

Hover mouse over dot to see the name of the station.

Then click to see weather observations and forecasts.

To change the map : click on the green buttons with a black cross to zoom in, on the green button with a dash to zoom out, or on the green arrows for adjacent maps.


METAR-TAF: